M I D A S
Marine Information and Data Acquisition System
Tripno 1811 of the Zeeleeuw from 2009-11-20 09:27:40 to 2009-11-20 15:13:05
Back to CruiseResearch ActivitiesStationsMapUnderway DataData graphs

EquipmentUnitsComments
TimeDGPSUTC
LatitudeDGPSDM.mWGS84
LongitudeDGPSDM.mWGS84
SpeedMeteo Stationm/sRelative wind speed
DirectionMeteo StationdegRelative wind direction
TemperatureMeteo Stationdeg CelciusAir temperature
PressureMeteo StationPaAtmospheric pressure
HumidityMeteo Station%Relative humidity
Missing or incorrect values are displayed as -999
Metereological data collected by the RV Zeeleeuw from 2009-11-20 09:26:08 to 2009-11-20 15:18:39
                                                                                    Next 1000 lines
Time Latitude Longitude Speed Direction Temperature Pressure Humidity
2009-11-20 09:26:18 51°13.661 2°55.954 3.4 13 12.2 101440 44
2009-11-20 09:26:23 51°13.662 2°55.95 5 20 12.2 101440 44
2009-11-20 09:26:28 51°13.663 2°55.946 5.9 24 12.2 101440 40
2009-11-20 09:26:33 51°13.665 2°55.941 6.3 28 12.2 101440 40
2009-11-20 09:26:39 51°13.667 2°55.935 6.4 27 12.2 101450 41
2009-11-20 09:26:45 51°13.669 2°55.928 5.9 35 12.2 101450 41
2009-11-20 09:26:50 51°13.671 2°55.922 5.5 33 12.2 101450 44
2009-11-20 09:26:56 51°13.673 2°55.914 7.6 24 12.2 101450 44
2009-11-20 09:27:02 51°13.674 2°55.906 8.3 20 12.3 101450 44
2009-11-20 09:27:06 51°13.676 2°55.9 5.5 28 12.3 101450 44
2009-11-20 09:27:12 51°13.677 2°55.892 4.4 21 12.3 101450 47
2009-11-20 09:27:16 51°13.678 2°55.886 5.3 34 12.3 101450 47
2009-11-20 09:27:21 51°13.68 2°55.879 4.1 40 12.3 101440 44
2009-11-20 09:27:26 51°13.681 2°55.872 5.9 24 12.3 101440 44
2009-11-20 09:27:32 51°13.682 2°55.863 5.6 25 12.3 101450 48
2009-11-20 09:27:37 51°13.683 2°55.856 6 27 12.3 101450 48
2009-11-20 09:27:41 51°13.684 2°55.851 5.5 34 12.3 101440 43
2009-11-20 09:27:46 51°13.685 2°55.843 4.8 19 12.3 101440 43
2009-11-20 09:27:52 51°13.686 2°55.835 3.7 23 12.3 101440 46
2009-11-20 09:27:57 51°13.686 2°55.828 4.5 16 12.3 101440 46
2009-11-20 09:28:01 51°13.687 2°55.822 2.8 30 12.3 101450 48
2009-11-20 09:28:06 51°13.687 2°55.815 2.6 43 12.3 101450 48
2009-11-20 09:28:12 51°13.687 2°55.808 3.4 40 12.3 101450 48
2009-11-20 09:28:17 51°13.688 2°55.801 7 42 12.3 101450 48
2009-11-20 09:28:21 51°13.688 2°55.796 7 37 12.3 101450 45
2009-11-20 09:28:26 51°13.687 2°55.79 4.4 41 12.3 101450 45
2009-11-20 09:28:31 51°13.687 2°55.785 3.5 26 12.3 101450 46
2009-11-20 09:28:37 51°13.687 2°55.778 6.2 43 12.3 101450 46
2009-11-20 09:28:42 51°13.687 2°55.773 5.4 31 12.3 101440 43
2009-11-20 09:28:46 51°13.687 2°55.77 5.4 31 12.3 101440 43
2009-11-20 09:28:51 51°13.687 2°55.768 4.7 40 12.3 101440 48
2009-11-20 09:28:56 51°13.687 2°55.767 3.4 40 12.3 101440 48
2009-11-20 09:29:01 51°13.688 2°55.767 4.1 33 12.3 101440 43
2009-11-20 09:29:06 51°13.688 2°55.766 3.5 34 12.3 101440 43
2009-11-20 09:29:10 51°13.689 2°55.766 2.9 23 12.3 101440 42
2009-11-20 09:29:15 51°13.69 2°55.767 2.2 42 12.3 101440 42
2009-11-20 09:29:21 51°13.691 2°55.767 1.3 25 12.3 101440 44
2009-11-20 09:29:25 51°13.692 2°55.767 1.1 35 12.3 101440 44
2009-11-20 09:29:30 51°13.693 2°55.768 1.4 42 12.3 101440 47
2009-11-20 09:29:35 51°13.695 2°55.769 4.8 40 12.3 101440 47
2009-11-20 09:29:40 51°13.696 2°55.769 5.1 21 12.3 101440 42
2009-11-20 09:29:45 51°13.697 2°55.769 5.1 37 12.3 101440 42
2009-11-20 09:29:50 51°13.697 2°55.769 5.2 29 12.3 101440 49
2009-11-20 09:29:54 51°13.697 2°55.769 6.5 37 12.3 101440 49
2009-11-20 09:29:59 51°13.696 2°55.769 7.3 24 12.3 101440 45
2009-11-20 09:30:04 51°13.696 2°55.768 4.9 36 12.3 101440 45
2009-11-20 09:30:09 51°13.695 2°55.767 4.4 27 12.3 101440 44
2009-11-20 09:30:14 51°13.694 2°55.767 6.9 36 12.3 101440 44
2009-11-20 09:30:18 51°13.693 2°55.766 3.9 19 12.3 101440 41
2009-11-20 09:30:23 51°13.692 2°55.765 2.9 34 12.3 101440 41
2009-11-20 09:30:28 51°13.691 2°55.765 3.5 28 12.3 101450 44
2009-11-20 09:30:33 51°13.691 2°55.764 4.1 37 12.3 101450 44
2009-11-20 09:30:38 51°13.692 2°55.764 4.4 25 12.4 101450 47
2009-11-20 09:30:43 51°13.693 2°55.763 4.6 36 12.4 101450 47
2009-11-20 09:30:48 51°13.694 2°55.762 5.5 22 12.3 101450 46
2009-11-20 09:30:53 51°13.696 2°55.761 5.4 270 12.3 101450 46
2009-11-20 09:30:58 51°13.698 2°55.759 5 21 12.4 101450 41
2009-11-20 09:31:03 51°13.7 2°55.757 6.7 40 12.4 101450 41
2009-11-20 09:31:08 51°13.703 2°55.754 7.7 26 12.4 101460 45
2009-11-20 09:31:13 51°13.706 2°55.75 6.9 261 12.4 101460 45
2009-11-20 09:31:18 51°13.71 2°55.746 4.1 267 12.4 101460 41
2009-11-20 09:31:23 51°13.715 2°55.741 5.7 255 12.4 101460 41
2009-11-20 09:31:28 51°13.72 2°55.735 3.6 260 12.4 101460 48
2009-11-20 09:31:33 51°13.726 2°55.729 4.5 268 12.4 101460 48
2009-11-20 09:31:38 51°13.732 2°55.722 3.5 31 12.4 101460 41
2009-11-20 09:31:43 51°13.738 2°55.715 4.5 36 12.4 101460 41
2009-11-20 09:31:48 51°13.745 2°55.708 3.2 29 12.4 101440 48
2009-11-20 09:31:53 51°13.752 2°55.701 3.5 35 12.4 101440 48
2009-11-20 09:31:58 51°13.76 2°55.693 2.9 258 12.4 101450 40
2009-11-20 09:32:03 51°13.768 2°55.685 2.3 32 12.4 101450 40
2009-11-20 09:32:08 51°13.776 2°55.677 2.3 26 12.4 101450 47
2009-11-20 09:32:13 51°13.785 2°55.67 1.4 265 12.4 101450 47
2009-11-20 09:32:18 51°13.794 2°55.662 0.9 22 12.4 101450 43
2009-11-20 09:32:23 51°13.803 2°55.654 1.9 307 12.4 101450 43
2009-11-20 09:32:28 51°13.812 2°55.646 2.4 261 12.4 101450 45
2009-11-20 09:32:33 51°13.822 2°55.638 4 250 12.4 101450 45
2009-11-20 09:32:38 51°13.832 2°55.63 3.1 265 12.4 101440 43
2009-11-20 09:32:43 51°13.842 2°55.622 2.6 58 12.4 101440 43
2009-11-20 09:32:48 51°13.852 2°55.614 2.6 23 12.4 101450 45
2009-11-20 09:32:53 51°13.862 2°55.605 3.5 32 12.4 101450 45
2009-11-20 09:32:58 51°13.873 2°55.597 3.1 23 12.4 101450 48
2009-11-20 09:33:03 51°13.884 2°55.589 2.6 246 12.4 101450 48
2009-11-20 09:33:08 51°13.894 2°55.58 2.9 255 12.4 101440 48
2009-11-20 09:33:13 51°13.905 2°55.572 5.8 256 12.4 101440 48
2009-11-20 09:33:18 51°13.916 2°55.563 4.1 254 12.4 101440 50
2009-11-20 09:33:23 51°13.927 2°55.554 4.7 39 12.4 101440 50
2009-11-20 09:33:28 51°13.938 2°55.545 3 255 12.4 101440 46
2009-11-20 09:33:33 51°13.949 2°55.537 1.3 40 12.4 101440 46
2009-11-20 09:33:38 51°13.96 2°55.528 1.9 21 12.4 101440 49
2009-11-20 09:33:43 51°13.972 2°55.52 0.6 261 12.4 101440 49
2009-11-20 09:33:48 51°13.983 2°55.511 1.8 260 12.4 101440 42
2009-11-20 09:33:53 51°13.995 2°55.503 1.3 316 12.4 101440 42
2009-11-20 09:33:58 51°14.007 2°55.494 0.8 319 12.4 101450 46
2009-11-20 09:34:03 51°14.018 2°55.486 2.1 255 12.4 101450 46
2009-11-20 09:34:08 51°14.03 2°55.478 2.6 265 12.4 101440 42
2009-11-20 09:34:13 51°14.042 2°55.47 1.7 257 12.4 101440 42
2009-11-20 09:34:18 51°14.053 2°55.461 1 267 12.4 101440 45
2009-11-20 09:34:23 51°14.065 2°55.452 2.2 34 12.4 101440 45
2009-11-20 09:34:28 51°14.077 2°55.444 1.7 21 12.4 101440 44
2009-11-20 09:34:33 51°14.088 2°55.434 1.7 257 12.4 101440 44
2009-11-20 09:34:38 51°14.1 2°55.426 1.2 30 12.4 101440 44
2009-11-20 09:34:43 51°14.112 2°55.417 1.7 310 12.4 101440 44
2009-11-20 09:34:48 51°14.123 2°55.408 1.2 29 12.4 101440 44
2009-11-20 09:34:53 51°14.135 2°55.398 1.5 263 12.4 101440 44
2009-11-20 09:34:58 51°14.146 2°55.388 1.3 27 12.4 101440 45
2009-11-20 09:35:03 51°14.157 2°55.377 5.2 252 12.4 101440 45
2009-11-20 09:35:08 51°14.169 2°55.367 5.6 257 12.4 101430 43
2009-11-20 09:35:13 51°14.18 2°55.356 6.2 250 12.4 101430 43
2009-11-20 09:35:18 51°14.19 2°55.344 4.9 252 12.4 101440 43
2009-11-20 09:35:23 51°14.201 2°55.333 3.5 270 12.4 101440 43
2009-11-20 09:35:28 51°14.211 2°55.32 2.6 29 12.4 101440 47
2009-11-20 09:35:33 51°14.221 2°55.307 3.5 240 12.4 101440 47
2009-11-20 09:35:38 51°14.23 2°55.294 2.7 19 12.4 101450 46
2009-11-20 09:35:43 51°14.24 2°55.28 3.8 249 12.4 101450 46
2009-11-20 09:35:48 51°14.249 2°55.266 6.5 247 12.4 101440 42
2009-11-20 09:35:53 51°14.258 2°55.252 3.5 250 12.4 101440 42
2009-11-20 09:35:58 51°14.266 2°55.237 4.2 256 12.4 101440 43
2009-11-20 09:36:03 51°14.275 2°55.222 3.9 321 12.4 101440 43
2009-11-20 09:36:08 51°14.283 2°55.206 6.7 24 12.4 101430 42
2009-11-20 09:36:13 51°14.291 2°55.19 7.1 239 12.4 101430 42
2009-11-20 09:36:18 51°14.299 2°55.174 7.3 20 12.4 101430 41
2009-11-20 09:36:23 51°14.307 2°55.158 6.6 248 12.4 101430 41
2009-11-20 09:36:28 51°14.316 2°55.142 5.8 22 12.4 101440 48
2009-11-20 09:36:33 51°14.324 2°55.127 5.4 249 12.4 101440 48
2009-11-20 09:36:38 51°14.333 2°55.111 5.2 26 12.4 101430 44
2009-11-20 09:36:43 51°14.342 2°55.096 4.9 240 12.4 101430 44
2009-11-20 09:36:48 51°14.351 2°55.081 5.3 26 12.4 101420 48
2009-11-20 09:36:53 51°14.36 2°55.066 4.9 264 12.4 101420 48
2009-11-20 09:36:58 51°14.369 2°55.051 6 28 12.4 101440 48
2009-11-20 09:37:03 51°14.378 2°55.037 5.2 306 12.4 101440 48
2009-11-20 09:37:08 51°14.388 2°55.023 6.3 253 12.4 101430 46
2009-11-20 09:37:13 51°14.398 2°55.01 8.6 250 12.4 101430 46
2009-11-20 09:37:18 51°14.408 2°54.997 9.6 250 12.4 101430 44
2009-11-20 09:37:23 51°14.418 2°54.984 6.4 260 12.4 101430 44
2009-11-20 09:37:28 51°14.428 2°54.97 8 259 12.4 101430 44
2009-11-20 09:37:33 51°14.438 2°54.956 10.1 259 12.4 101430 44
2009-11-20 09:37:38 51°14.448 2°54.941 7.7 261 12.4 101430 42
2009-11-20 09:37:42 51°14.456 2°54.929 10.3 262 12.4 101430 42
2009-11-20 09:37:48 51°14.467 2°54.91 6.4 261 12.4 101420 42
2009-11-20 09:37:53 51°14.477 2°54.893 10.4 306 12.4 101420 42
2009-11-20 09:37:58 51°14.486 2°54.874 10.9 253 12.4 101430 42
2009-11-20 09:38:03 51°14.494 2°54.855 13.7 253 12.4 101430 42
2009-11-20 09:38:08 51°14.501 2°54.835 12.1 254 12.4 101430 46
2009-11-20 09:38:13 51°14.509 2°54.814 10.2 253 12.4 101430 46
2009-11-20 09:38:18 51°14.517 2°54.793 10.5 249 12.4 101430 42
2009-11-20 09:38:23 51°14.525 2°54.772 10.1 253 12.4 101430 42
2009-11-20 09:38:28 51°14.533 2°54.751 12.4 259 12.3 101430 46
2009-11-20 09:38:33 51°14.541 2°54.73 10.5 251 12.3 101430 46
2009-11-20 09:38:38 51°14.55 2°54.708 12.1 253 12.4 101420 44
2009-11-20 09:38:43 51°14.557 2°54.687 11.8 251 12.4 101420 44
2009-11-20 09:38:48 51°14.566 2°54.665 12.5 249 12.3 101430 43
2009-11-20 09:38:53 51°14.574 2°54.643 11.1 254 12.3 101430 43
2009-11-20 09:38:58 51°14.582 2°54.621 11 252 12.4 101430 43
2009-11-20 09:39:03 51°14.59 2°54.6 13.5 308 12.4 101430 43
2009-11-20 09:39:08 51°14.598 2°54.578 11.2 253 12.3 101430 47
2009-11-20 09:39:13 51°14.606 2°54.556 12.9 251 12.3 101430 47
2009-11-20 09:39:18 51°14.614 2°54.534 11.7 253 12.3 101420 43
2009-11-20 09:39:23 51°14.623 2°54.512 13.2 307 12.3 101420 43
2009-11-20 09:39:28 51°14.631 2°54.49 11.9 255 12.3 101430 45
2009-11-20 09:39:33 51°14.638 2°54.468 10.5 249 12.3 101430 45
2009-11-20 09:39:38 51°14.646 2°54.445 10.5 249 12.3 101420 43
2009-11-20 09:39:43 51°14.653 2°54.423 11.9 244 12.3 101420 43
2009-11-20 09:39:48 51°14.661 2°54.4 10.6 19 12.3 101430 42
2009-11-20 09:39:53 51°14.668 2°54.378 9.4 248 12.3 101430 42
2009-11-20 09:39:58 51°14.675 2°54.355 9.3 248 12.3 101420 44
2009-11-20 09:40:03 51°14.683 2°54.332 10.7 248 12.3 101420 44
2009-11-20 09:40:08 51°14.69 2°54.31 11.1 247 12.3 101420 43
2009-11-20 09:40:13 51°14.697 2°54.287 12 246 12.3 101420 43
2009-11-20 09:40:18 51°14.704 2°54.264 14.4 251 12.3 101430 43
2009-11-20 09:40:23 51°14.71 2°54.241 14.3 251 12.3 101430 43
2009-11-20 09:40:28 51°14.717 2°54.217 13.6 249 12.3 101420 46
2009-11-20 09:40:33 51°14.723 2°54.194 13.5 253 12.3 101420 46
2009-11-20 09:40:38 51°14.729 2°54.17 14.5 252 12.3 101420 45
2009-11-20 09:40:43 51°14.735 2°54.147 13.3 248 12.3 101420 45
2009-11-20 09:40:48 51°14.741 2°54.123 12.5 250 12.3 101430 46
2009-11-20 09:40:53 51°14.747 2°54.1 13.2 246 12.3 101430 46
2009-11-20 09:40:58 51°14.753 2°54.076 12 249 12.3 101430 45
2009-11-20 09:41:02 51°14.758 2°54.057 10.8 242 12.3 101430 45
2009-11-20 09:41:08 51°14.765 2°54.03 11.2 247 12.3 101410 44
2009-11-20 09:41:13 51°14.771 2°54.006 13.6 248 12.3 101410 44
2009-11-20 09:41:18 51°14.777 2°53.982 14 21 12.3 101420 46
2009-11-20 09:41:23 51°14.783 2°53.959 14.8 301 12.3 101420 46
2009-11-20 09:41:28 51°14.789 2°53.936 14.7 251 12.3 101420 46
2009-11-20 09:41:33 51°14.795 2°53.913 13.9 246 12.3 101420 46
2009-11-20 09:41:38 51°14.801 2°53.889 12 24 12.3 101410 44
2009-11-20 09:41:43 51°14.807 2°53.866 13.6 309 12.3 101410 44
2009-11-20 09:41:48 51°14.812 2°53.843 13 251 12.3 101410 46
2009-11-20 09:41:53 51°14.818 2°53.819 11.8 249 12.3 101410 46
2009-11-20 09:41:58 51°14.824 2°53.796 10.5 247 12.3 101420 46
2009-11-20 09:42:02 51°14.829 2°53.777 11.3 248 12.3 101420 46
2009-11-20 09:42:08 51°14.836 2°53.749 12 22 12.3 101410 43
2009-11-20 09:42:13 51°14.842 2°53.726 14.8 249 12.3 101410 43
2009-11-20 09:42:18 51°14.848 2°53.702 11.4 248 12.3 101410 43
2009-11-20 09:42:23 51°14.853 2°53.679 11 245 12.3 101410 43
2009-11-20 09:42:28 51°14.859 2°53.655 12.2 21 12.3 101410 44
2009-11-20 09:42:33 51°14.865 2°53.631 12.9 249 12.3 101410 44
2009-11-20 09:42:38 51°14.871 2°53.608 15.8 254 12.3 101410 45
2009-11-20 09:42:43 51°14.877 2°53.584 14.1 248 12.3 101410 45
2009-11-20 09:42:48 51°14.883 2°53.561 13.5 21 12.3 101420 43
2009-11-20 09:42:53 51°14.888 2°53.537 11.7 247 12.3 101420 43
2009-11-20 09:42:58 51°14.894 2°53.514 11.4 24 12.3 101410 43
2009-11-20 09:43:03 51°14.9 2°53.49 14.2 251 12.3 101410 43
2009-11-20 09:43:03 51°14.9 2°53.49 14.2 251 12.3 101410 43
2009-11-20 09:43:13 51°14.912 2°53.443 13.3 249 12.2 101420 45
2009-11-20 09:43:13 51°14.912 2°53.443 13.3 249 12.2 101420 45
2009-11-20 09:43:24 51°14.925 2°53.391 12.1 251 12.2 101400 44
2009-11-20 09:43:29 51°14.931 2°53.368 13.6 247 12.2 101410 45
2009-11-20 09:43:34 51°14.936 2°53.344 13.1 245 12.2 101410 45
2009-11-20 09:43:39 51°14.942 2°53.321 14.8 282 12.2 101420 43
2009-11-20 09:43:39 51°14.942 2°53.321 14.8 282 12.2 101420 43
2009-11-20 09:43:52 51°14.958 2°53.26 11.8 311 12.2 101420 44
2009-11-20 09:43:52 51°14.958 2°53.26 11.8 311 12.2 101420 44
2009-11-20 09:44:03 51°14.97 2°53.208 12.3 246 12.2 101410 46
2009-11-20 09:44:08 51°14.976 2°53.184 14 247 12.2 101410 43
2009-11-20 09:44:13 51°14.982 2°53.16 12.9 250 12.2 101410 43
2009-11-20 09:44:18 51°14.988 2°53.136 13.9 247 12.2 101410 46
2009-11-20 09:44:22 51°14.992 2°53.117 12.8 252 12.2 101410 46
2009-11-20 09:44:28 51°14.999 2°53.088 13.9 250 12.2 101410 43
2009-11-20 09:44:33 51°15.005 2°53.064 12.3 303 12.2 101410 43
2009-11-20 09:44:38 51°15.011 2°53.041 13.2 24 12.2 101410 43
2009-11-20 09:44:43 51°15.017 2°53.017 14.1 251 12.2 101410 43
2009-11-20 09:44:48 51°15.022 2°52.993 13.8 252 12.2 101410 44
2009-11-20 09:44:53 51°15.028 2°52.969 10.9 248 12.2 101410 44
2009-11-20 09:44:58 51°15.034 2°52.946 13.2 254 12.2 101410 46
2009-11-20 09:45:03 51°15.04 2°52.922 10.5 247 12.2 101410 46
2009-11-20 09:45:08 51°15.046 2°52.898 10.5 20 12.2 101410 46
2009-11-20 09:45:13 51°15.052 2°52.874 12.9 248 12.2 101410 46
2009-11-20 09:45:18 51°15.058 2°52.851 12.9 249 12.2 101420 46
2009-11-20 09:45:23 51°15.064 2°52.827 11.8 252 12.2 101420 46
2009-11-20 09:45:28 51°15.07 2°52.803 11.2 249 12.2 101420 46
2009-11-20 09:45:33 51°15.076 2°52.779 13.8 248 12.2 101420 46
2009-11-20 09:45:38 51°15.082 2°52.755 13.4 249 12.2 101410 43
2009-11-20 09:45:43 51°15.087 2°52.731 13 306 12.2 101410 43
2009-11-20 09:45:48 51°15.093 2°52.708 11.7 251 12.2 101420 46
2009-11-20 09:45:53 51°15.099 2°52.684 13.4 249 12.2 101420 46
2009-11-20 09:45:58 51°15.105 2°52.66 12.8 23 12.2 101410 44
2009-11-20 09:46:03 51°15.111 2°52.636 12.5 303 12.2 101410 44
2009-11-20 09:46:08 51°15.117 2°52.612 11.7 248 12.2 101420 45
2009-11-20 09:46:13 51°15.123 2°52.588 12.2 247 12.2 101420 45
2009-11-20 09:46:18 51°15.128 2°52.564 12.2 251 12.2 101410 46
2009-11-20 09:46:23 51°15.134 2°52.54 11.4 250 12.2 101410 46
2009-11-20 09:46:27 51°15.139 2°52.521 11.8 249 12.2 101410 46
2009-11-20 09:46:33 51°15.146 2°52.492 11.5 247 12.2 101410 46
2009-11-20 09:46:38 51°15.151 2°52.468 13.3 247 12.2 101420 45
2009-11-20 09:46:43 51°15.156 2°52.444 12.3 249 12.2 101420 45
2009-11-20 09:46:48 51°15.163 2°52.42 12.5 248 12.2 101410 46
2009-11-20 09:46:53 51°15.168 2°52.396 12.2 250 12.2 101410 46
2009-11-20 09:46:58 51°15.174 2°52.372 12 251 12.1 101410 43
2009-11-20 09:47:03 51°15.18 2°52.348 13.6 248 12.1 101410 43
2009-11-20 09:47:08 51°15.186 2°52.324 13 249 12.1 101410 44
2009-11-20 09:47:13 51°15.191 2°52.3 12.2 248 12.1 101410 44
2009-11-20 09:47:18 51°15.197 2°52.276 11.3 248 12.1 101410 45
2009-11-20 09:47:23 51°15.203 2°52.252 12.7 250 12.1 101410 45
2009-11-20 09:47:28 51°15.209 2°52.228 12.5 252 12.1 101410 44
2009-11-20 09:47:33 51°15.215 2°52.204 12.9 249 12.1 101410 44
2009-11-20 09:47:38 51°15.221 2°52.18 11.6 250 12.1 101420 45
2009-11-20 09:47:43 51°15.226 2°52.156 11.4 250 12.1 101420 45
2009-11-20 09:47:48 51°15.232 2°52.131 12 251 12.1 101420 46
2009-11-20 09:47:53 51°15.238 2°52.107 12.1 249 12.1 101420 46
2009-11-20 09:47:58 51°15.244 2°52.083 10.7 249 12.1 101410 46
2009-11-20 09:48:03 51°15.25 2°52.059 10.4 305 12.1 101410 46
2009-11-20 09:48:08 51°15.255 2°52.035 9.7 22 12.1 101410 46
2009-11-20 09:48:13 51°15.259 2°52.01 10.9 246 12.1 101410 46
2009-11-20 09:48:18 51°15.264 2°51.986 10.4 248 12.1 101410 44
2009-11-20 09:48:23 51°15.268 2°51.961 13 306 12.1 101410 44
2009-11-20 09:48:28 51°15.27 2°51.936 12.5 22 12.1 101410 43
2009-11-20 09:48:33 51°15.273 2°51.91 12 244 12.1 101410 43
2009-11-20 09:48:38 51°15.275 2°51.885 13.3 20 12.1 101410 44
2009-11-20 09:48:42 51°15.276 2°51.864 12.3 241 12.1 101410 44
2009-11-20 09:48:48 51°15.278 2°51.834 13 25 12.1 101400 47
2009-11-20 09:48:53 51°15.279 2°51.808 13.4 245 12.1 101400 47
2009-11-20 09:48:58 51°15.28 2°51.782 12.9 25 12.1 101400 43
2009-11-20 09:49:03 51°15.28 2°51.756 11.8 245 12.1 101400 43
2009-11-20 09:49:08 51°15.281 2°51.73 13.9 21 12.1 101390 44
2009-11-20 09:49:13 51°15.281 2°51.704 13 242 12.1 101390 44
2009-11-20 09:49:18 51°15.281 2°51.678 14.1 25 12.1 101390 43
2009-11-20 09:49:23 51°15.28 2°51.651 13.1 242 12.1 101390 43
2009-11-20 09:49:28 51°15.279 2°51.625 14.9 23 12.1 101390 43
2009-11-20 09:49:33 51°15.279 2°51.599 14 241 12.1 101390 43
2009-11-20 09:49:38 51°15.277 2°51.573 13.7 22 12.1 101390 46
2009-11-20 09:49:43 51°15.276 2°51.547 14 241 12.1 101390 46
2009-11-20 09:49:48 51°15.275 2°51.52 15.8 21 12.1 101390 44
2009-11-20 09:49:53 51°15.274 2°51.494 14.7 242 12.1 101390 44
2009-11-20 09:49:58 51°15.272 2°51.467 13 25 12.1 101380 44
2009-11-20 09:50:03 51°15.271 2°51.441 15.3 242 12.1 101380 44
2009-11-20 09:50:08 51°15.269 2°51.415 14.6 25 12.1 101380 44
2009-11-20 09:50:13 51°15.268 2°51.388 14.6 240 12.1 101380 44
2009-11-20 09:50:18 51°15.267 2°51.362 15.5 25 12.1 101380 45
2009-11-20 09:50:23 51°15.266 2°51.334 15 305 12.1 101380 45
2009-11-20 09:50:28 51°15.265 2°51.308 13.1 281 12.1 101370 46
2009-11-20 09:50:33 51°15.263 2°51.281 15.6 241 12.1 101370 46
2009-11-20 09:50:38 51°15.262 2°51.255 15.2 22 12.1 101370 46
2009-11-20 09:50:42 51°15.261 2°51.233 14.1 241 12.1 101370 46
2009-11-20 09:50:48 51°15.26 2°51.201 13.1 20 12.1 101390 45
2009-11-20 09:50:53 51°15.259 2°51.175 13.5 240 12.1 101390 45
2009-11-20 09:50:58 51°15.258 2°51.148 13 23 12.1 101380 46
2009-11-20 09:51:03 51°15.257 2°51.122 13.6 238 12.1 101380 46
2009-11-20 09:51:08 51°15.255 2°51.095 13.4 26 12.1 101380 44
2009-11-20 09:51:13 51°15.254 2°51.069 14.1 31 12.1 101380 44
2009-11-20 09:51:18 51°15.253 2°51.042 13.8 21 12.1 101380 44
2009-11-20 09:51:23 51°15.252 2°51.015 13.6 238 12.1 101380 44
2009-11-20 09:51:28 51°15.251 2°50.989 14.8 22 12.1 101380 44
2009-11-20 09:51:33 51°15.25 2°50.962 14.7 240 12.1 101380 44
2009-11-20 09:51:38 51°15.249 2°50.935 15.1 278 12.1 101370 44
2009-11-20 09:51:43 51°15.248 2°50.909 14 238 12.1 101370 44
2009-11-20 09:51:48 51°15.248 2°50.882 13.9 24 12.1 101380 46
2009-11-20 09:51:53 51°15.246 2°50.856 15 240 12.1 101380 46
2009-11-20 09:51:58 51°15.245 2°50.829 14.9 22 12.1 101380 44
2009-11-20 09:52:03 51°15.244 2°50.803 14.6 239 12.1 101380 44
2009-11-20 09:52:08 51°15.242 2°50.776 15.4 285 12.1 101400 46
2009-11-20 09:52:13 51°15.24 2°50.75 14.9 240 12.1 101400 46
2009-11-20 09:52:18 51°15.238 2°50.723 14.8 23 12.1 101380 44
2009-11-20 09:52:23 51°15.237 2°50.697 13.7 237 12.1 101380 44
2009-11-20 09:52:28 51°15.235 2°50.67 15.4 281 12.1 101390 45
2009-11-20 09:52:33 51°15.232 2°50.644 14.9 239 12.1 101390 45
2009-11-20 09:52:38 51°15.23 2°50.618 12.7 24 12.1 101370 46
2009-11-20 09:52:42 51°15.228 2°50.597 13.7 236 12.1 101370 46
2009-11-20 09:52:48 51°15.226 2°50.565 13.6 23 12.1 101380 46
2009-11-20 09:52:53 51°15.223 2°50.54 14.3 239 12.1 101380 46
2009-11-20 09:52:58 51°15.221 2°50.513 14.8 27 12.1 101380 43
2009-11-20 09:53:03 51°15.219 2°50.487 13.7 241 12.1 101380 43
2009-11-20 09:53:07 51°15.217 2°50.466 14.4 23 12.1 101390 45
2009-11-20 09:53:13 51°15.214 2°50.434 13.9 241 12.1 101390 45
2009-11-20 09:53:18 51°15.212 2°50.408 12.8 21 12.1 101380 44
2009-11-20 09:53:23 51°15.209 2°50.382 13.5 239 12.1 101380 44
2009-11-20 09:53:28 51°15.207 2°50.355 14.1 21 12.1 101370 46
2009-11-20 09:53:33 51°15.205 2°50.329 13.2 241 12.1 101370 46
2009-11-20 09:53:38 51°15.202 2°50.302 13 278 12.1 101370 46
2009-11-20 09:53:43 51°15.2 2°50.276 14.3 241 12.1 101370 46
2009-11-20 09:53:48 51°15.198 2°50.249 14.4 22 12.1 101370 43
2009-11-20 09:53:53 51°15.195 2°50.223 12.9 239 12.1 101370 43
2009-11-20 09:53:58 51°15.193 2°50.196 14.4 281 12.1 101370 46
2009-11-20 09:54:03 51°15.191 2°50.169 14.8 240 12.1 101370 46
2009-11-20 09:54:08 51°15.189 2°50.143 15 283 12.1 101390 45
2009-11-20 09:54:13 51°15.186 2°50.116 13.6 240 12.1 101390 45
2009-11-20 09:54:18 51°15.184 2°50.09 13.3 27 12.1 101370 46
2009-11-20 09:54:23 51°15.182 2°50.063 13.6 31 12.1 101370 46
2009-11-20 09:54:28 51°15.18 2°50.037 13.3 24 12.1 101380 46
2009-11-20 09:54:33 51°15.177 2°50.01 13.7 236 12.1 101380 46
2009-11-20 09:54:38 51°15.175 2°49.984 14.3 25 12.1 101370 46
2009-11-20 09:54:43 51°15.173 2°49.957 12.9 240 12.1 101370 46
2009-11-20 09:54:48 51°15.171 2°49.93 14.6 21 12.2 101370 46
2009-11-20 09:54:53 51°15.169 2°49.904 15.6 239 12.2 101370 46
2009-11-20 09:54:58 51°15.167 2°49.877 14.6 24 12.2 101380 46
2009-11-20 09:55:02 51°15.165 2°49.856 15.8 239 12.2 101380 46
2009-11-20 09:55:08 51°15.163 2°49.824 15.7 23 12.2 101370 46
2009-11-20 09:55:13 51°15.161 2°49.797 13 237 12.2 101370 46
2009-11-20 09:55:18 51°15.159 2°49.771 15.1 24 12.2 101370 45
2009-11-20 09:55:23 51°15.156 2°49.744 14.8 237 12.2 101370 45
2009-11-20 09:55:28 51°15.154 2°49.718 13.5 23 12.2 101380 45
2009-11-20 09:55:33 51°15.152 2°49.691 14.4 235 12.2 101380 45
2009-11-20 09:55:38 51°15.15 2°49.665 15 21 12.2 101370 45
2009-11-20 09:55:43 51°15.148 2°49.639 14.7 236 12.2 101370 45
2009-11-20 09:55:48 51°15.146 2°49.612 14 23 12.2 101380 45
2009-11-20 09:55:53 51°15.144 2°49.586 13.3 238 12.2 101380 45
2009-11-20 09:55:58 51°15.142 2°49.559 14.9 21 12.2 101370 44
2009-11-20 09:56:03 51°15.14 2°49.533 15.5 239 12.2 101370 44
2009-11-20 09:56:08 51°15.138 2°49.506 14 26 12.2 101370 45
2009-11-20 09:56:13 51°15.136 2°49.48 13.2 239 12.2 101370 45
2009-11-20 09:56:18 51°15.134 2°49.453 15.1 26 12.2 101370 44
2009-11-20 09:56:23 51°15.132 2°49.427 13 237 12.2 101370 44
2009-11-20 09:56:28 51°15.13 2°49.4 13.3 279 12.2 101380 43
2009-11-20 09:56:33 51°15.128 2°49.374 14.4 240 12.2 101380 43
2009-11-20 09:56:38 51°15.126 2°49.347 13.3 22 12.2 101390 46
2009-11-20 09:56:42 51°15.124 2°49.326 14.3 240 12.2 101390 46
2009-11-20 09:56:48 51°15.122 2°49.294 14 26 12.2 101380 44
2009-11-20 09:56:53 51°15.12 2°49.268 13.8 237 12.2 101380 44
2009-11-20 09:56:58 51°15.118 2°49.242 14 20 12.2 101370 44
2009-11-20 09:57:03 51°15.116 2°49.215 14.3 238 12.2 101370 44
2009-11-20 09:57:08 51°15.114 2°49.189 15.6 286 12.2 101380 44
2009-11-20 09:57:13 51°15.112 2°49.162 14.5 240 12.2 101380 44
2009-11-20 09:57:18 51°15.11 2°49.136 14.8 24 12.2 101380 44
2009-11-20 09:57:23 51°15.108 2°49.11 14.6 239 12.2 101380 44
2009-11-20 09:57:27 51°15.106 2°49.089 14.5 26 12.2 101370 46
2009-11-20 09:57:33 51°15.104 2°49.058 13.4 32 12.2 101370 46
2009-11-20 09:57:38 51°15.102 2°49.031 14.1 22 12.2 101380 46
2009-11-20 09:57:43 51°15.1 2°49.005 15.4 238 12.2 101380 46
2009-11-20 09:57:48 51°15.098 2°48.979 13.8 24 12.2 101380 43
2009-11-20 09:57:53 51°15.096 2°48.953 14.4 237 12.2 101380 43
2009-11-20 09:57:58 51°15.094 2°48.927 11.8 281 12.2 101380 45
2009-11-20 09:58:03 51°15.091 2°48.9 12.1 238 12.2 101380 45
2009-11-20 09:58:08 51°15.09 2°48.874 14.6 24 12.2 101370 44
2009-11-20 09:58:13 51°15.088 2°48.848 13.9 239 12.2 101370 44
2009-11-20 09:58:18 51°15.086 2°48.822 13.6 284 12.2 101380 45
2009-11-20 09:58:22 51°15.084 2°48.801 14.3 239 12.2 101380 45
2009-11-20 09:58:28 51°15.082 2°48.769 14 22 12.2 101380 45
2009-11-20 09:58:33 51°15.08 2°48.743 14.7 31 12.2 101380 45
2009-11-20 09:58:38 51°15.078 2°48.717 14.2 21 12.2 101380 46
2009-11-20 09:58:43 51°15.076 2°48.691 14.3 240 12.2 101380 46
2009-11-20 09:58:48 51°15.074 2°48.665 15.4 23 12.2 101380 46
2009-11-20 09:58:53 51°15.072 2°48.638 13.7 238 12.2 101380 46
2009-11-20 09:58:58 51°15.07 2°48.612 14 26 12.2 101390 45
2009-11-20 09:59:02 51°15.068 2°48.591 15.1 237 12.2 101390 45
2009-11-20 09:59:08 51°15.066 2°48.559 12.4 25 12.2 101380 43
2009-11-20 09:59:13 51°15.064 2°48.533 12.5 241 12.2 101380 43
2009-11-20 09:59:18 51°15.062 2°48.507 14.8 24 12.2 101380 46
2009-11-20 09:59:23 51°15.06 2°48.481 16.1 240 12.2 101380 46
2009-11-20 09:59:28 51°15.058 2°48.455 13.9 280 12.2 101390 45
2009-11-20 09:59:33 51°15.056 2°48.429 14.6 240 12.2 101390 45
2009-11-20 09:59:38 51°15.054 2°48.403 13.1 28 12.2 101390 45
2009-11-20 09:59:43 51°15.052 2°48.377 14.1 33 12.2 101390 45
2009-11-20 09:59:48 51°15.05 2°48.35 14.6 21 12.2 101380 44
2009-11-20 09:59:53 51°15.048 2°48.324 12.9 239 12.2 101380 44
2009-11-20 09:59:58 51°15.046 2°48.298 12.7 25 12.3 101380 46
2009-11-20 10:00:03 51°15.044 2°48.272 14.9 239 12.3 101380 46
2009-11-20 10:00:08 51°15.042 2°48.246 13.4 21 12.3 101370 44
2009-11-20 10:00:13 51°15.04 2°48.219 12.5 31 12.3 101370 44
2009-11-20 10:00:18 51°15.038 2°48.193 13.3 279 12.3 101380 45
2009-11-20 10:00:22 51°15.037 2°48.172 13.1 239 12.3 101380 45
2009-11-20 10:00:28 51°15.034 2°48.141 15 23 12.3 101380 45
2009-11-20 10:00:33 51°15.032 2°48.115 13.6 240 12.3 101380 45
2009-11-20 10:00:38 51°15.03 2°48.089 12.7 23 12.3 101380 47
2009-11-20 10:00:43 51°15.028 2°48.063 14.3 241 12.3 101380 47
2009-11-20 10:00:48 51°15.027 2°48.037 13.5 22 12.3 101380 45
2009-11-20 10:00:53 51°15.024 2°48.011 13.6 238 12.3 101380 45
2009-11-20 10:00:58 51°15.022 2°47.985 14.2 22 12.3 101380 46
2009-11-20 10:01:03 51°15.021 2°47.958 12.5 240 12.3 101380 46
2009-11-20 10:01:08 51°15.018 2°47.932 14.4 24 12.3 101370 46
2009-11-20 10:01:13 51°15.017 2°47.906 12.5 243 12.3 101370 46
2009-11-20 10:01:18 51°15.015 2°47.88 12 27 12.3 101370 44
2009-11-20 10:01:23 51°15.013 2°47.854 14.5 239 12.3 101370 44
2009-11-20 10:01:28 51°15.011 2°47.828 11.8 282 12.3 101380 47
2009-11-20 10:01:33 51°15.009 2°47.802 13.5 239 12.3 101380 47
2009-11-20 10:01:38 51°15.007 2°47.776 13 25 12.3 101370 45
2009-11-20 10:01:42 51°15.005 2°47.755 13.8 239 12.3 101370 45
2009-11-20 10:01:48 51°15.003 2°47.724 15.3 23 12.3 101380 43
2009-11-20 10:01:53 51°15.001 2°47.698 13.8 239 12.3 101380 43
2009-11-20 10:01:58 51°14.999 2°47.672 12.6 21 12.3 101390 44
2009-11-20 10:02:03 51°14.997 2°47.646 12.4 31 12.3 101390 44
2009-11-20 10:02:08 51°14.995 2°47.62 12.2 19 12.3 101380 46
2009-11-20 10:02:13 51°14.993 2°47.595 13.7 239 12.3 101380 46
2009-11-20 10:02:18 51°14.991 2°47.568 12.7 26 12.3 101380 46
2009-11-20 10:02:23 51°14.99 2°47.543 11.9 240 12.3 101380 46
2009-11-20 10:02:28 51°14.988 2°47.517 13 21 12.3 101380 44
2009-11-20 10:02:33 51°14.986 2°47.491 13.4 240 12.3 101380 44
2009-11-20 10:02:38 51°14.984 2°47.465 13.2 27 12.3 101380 44
2009-11-20 10:02:43 51°14.982 2°47.439 12.7 238 12.3 101380 44
2009-11-20 10:02:48 51°14.981 2°47.413 13.1 26 12.3 101380 46
2009-11-20 10:02:53 51°14.979 2°47.387 14.5 238 12.3 101380 46
2009-11-20 10:02:58 51°14.977 2°47.362 13.8 22 12.3 101370 44
2009-11-20 10:03:03 51°14.975 2°47.336 12.5 237 12.3 101370 44
2009-11-20 10:03:08 51°14.973 2°47.31 13.3 279 12.3 101370 45
2009-11-20 10:03:13 51°14.971 2°47.285 13.6 239 12.3 101370 45
2009-11-20 10:03:18 51°14.97 2°47.259 13.7 22 12.4 101380 47
2009-11-20 10:03:23 51°14.968 2°47.233 13.7 240 12.4 101380 47
2009-11-20 10:03:28 51°14.966 2°47.208 15 286 12.3 101370 44
2009-11-20 10:03:33 51°14.964 2°47.182 15.2 240 12.3 101370 44
2009-11-20 10:03:38 51°14.962 2°47.157 16 21 12.4 101370 45
2009-11-20 10:03:42 51°14.961 2°47.136 15.5 241 12.4 101370 45
2009-11-20 10:03:48 51°14.958 2°47.105 13.6 23 12.4 101370 44
2009-11-20 10:03:53 51°14.956 2°47.08 15.7 238 12.4 101370 44
2009-11-20 10:03:58 51°14.954 2°47.054 14 23 12.4 101370 45
2009-11-20 10:04:02 51°14.953 2°47.034 14.3 239 12.4 101370 45
2009-11-20 10:04:08 51°14.95 2°47.003 15.2 282 12.4 101370 44
2009-11-20 10:04:13 51°14.949 2°46.978 16 239 12.4 101370 44
2009-11-20 10:04:18 51°14.947 2°46.952 14.5 284 12.4 101370 46
2009-11-20 10:04:22 51°14.945 2°46.932 13.4 240 12.4 101370 46
2009-11-20 10:04:28 51°14.943 2°46.901 13.6 21 12.4 101370 45
2009-11-20 10:04:33 51°14.941 2°46.876 13.8 241 12.4 101370 45
2009-11-20 10:04:38 51°14.94 2°46.85 13.7 26 12.4 101370 46
2009-11-20 10:04:43 51°14.938 2°46.825 14.3 241 12.4 101370 46
2009-11-20 10:04:48 51°14.936 2°46.8 13 21 12.4 101370 44
2009-11-20 10:04:53 51°14.934 2°46.774 12 240 12.4 101370 44
2009-11-20 10:04:58 51°14.931 2°46.749 15.2 283 12.4 101370 44
2009-11-20 10:05:03 51°14.928 2°46.724 14 238 12.4 101370 44
2009-11-20 10:05:08 51°14.926 2°46.698 15 23 12.4 101380 44
2009-11-20 10:05:13 51°14.922 2°46.673 15.3 238 12.4 101380 44
2009-11-20 10:05:18 51°14.919 2°46.648 16.9 25 12.4 101380 45
2009-11-20 10:05:23 51°14.916 2°46.623 15.6 240 12.4 101380 45
2009-11-20 10:05:28 51°14.913 2°46.598 16.2 282 12.4 101370 45
2009-11-20 10:05:33 51°14.909 2°46.573 13.9 237 12.4 101370 45
2009-11-20 10:05:38 51°14.905 2°46.548 15.8 25 12.5 101360 46
2009-11-20 10:05:42 51°14.902 2°46.528 14.7 236 12.5 101360 46
2009-11-20 10:05:48 51°14.897 2°46.498 14.9 26 12.5 101360 45
2009-11-20 10:05:53 51°14.892 2°46.473 16.6 237 12.5 101360 45
2009-11-20 10:05:58 51°14.888 2°46.448 16.5 23 12.5 101370 46
2009-11-20 10:06:03 51°14.883 2°46.424 16 33 12.5 101370 46
2009-11-20 10:06:08 51°14.879 2°46.399 15.5 20 12.5 101370 45
2009-11-20 10:06:13 51°14.874 2°46.375 14.3 33 12.5 101370 45
2009-11-20 10:06:18 51°14.869 2°46.35 14.6 21 12.5 101360 45
2009-11-20 10:06:22 51°14.865 2°46.33 14.8 236 12.5 101360 45
2009-11-20 10:06:28 51°14.86 2°46.301 13.9 23 12.5 101380 44
2009-11-20 10:06:33 51°14.855 2°46.276 18 34 12.5 101380 44
2009-11-20 10:06:38 51°14.851 2°46.251 16.7 25 12.5 101360 44
2009-11-20 10:06:43 51°14.846 2°46.227 17.8 235 12.5 101360 44
2009-11-20 10:06:48 51°14.841 2°46.202 15.4 26 12.5 101360 44
2009-11-20 10:06:53 51°14.837 2°46.177 15.1 32 12.5 101360 44
2009-11-20 10:06:58 51°14.832 2°46.153 16.6 282 12.5 101360 44
2009-11-20 10:07:02 51°14.828 2°46.133 15.9 32 12.5 101360 44
2009-11-20 10:07:08 51°14.822 2°46.103 15.8 24 12.5 101350 44
2009-11-20 10:07:13 51°14.818 2°46.078 15.1 235 12.5 101350 44
2009-11-20 10:07:18 51°14.813 2°46.054 16.6 279 12.5 101360 46
2009-11-20 10:07:23 51°14.809 2°46.029 15.1 236 12.5 101360 46
2009-11-20 10:07:28 51°14.804 2°46.004 15.3 284 12.5 101360 46
2009-11-20 10:07:33 51°14.799 2°45.979 14.3 32 12.5 101360 46
2009-11-20 10:07:38 51°14.794 2°45.954 16.7 21 12.5 101360 47
2009-11-20 10:07:42 51°14.791 2°45.935 15.6 34 12.5 101360 47
2009-11-20 10:07:48 51°14.785 2°45.905 14.8 23 12.6 101350 46
2009-11-20 10:07:53 51°14.78 2°45.88 16.6 235 12.6 101350 46
2009-11-20 10:07:58 51°14.776 2°45.855 16.8 23 12.6 101360 44
2009-11-20 10:08:03 51°14.771 2°45.83 15.9 237 12.6 101360 44
2009-11-20 10:08:08 51°14.766 2°45.805 13.6 277 12.6 101360 44
2009-11-20 10:08:13 51°14.762 2°45.78 15.9 234 12.6 101360 44
2009-11-20 10:08:18 51°14.757 2°45.755 16 27 12.6 101360 45
2009-11-20 10:08:23 51°14.752 2°45.73 15.7 35 12.6 101360 45
2009-11-20 10:08:28 51°14.748 2°45.705 16.1 21 12.6 101370 45
2009-11-20 10:08:33 51°14.743 2°45.68 16.9 236 12.6 101370 45
2009-11-20 10:08:38 51°14.738 2°45.656 16.1 284 12.6 101360 46
2009-11-20 10:08:42 51°14.735 2°45.636 15.5 34 12.6 101360 46
2009-11-20 10:08:48 51°14.728 2°45.606 13.8 25 12.6 101360 44
2009-11-20 10:08:53 51°14.723 2°45.582 16.6 234 12.6 101360 44
2009-11-20 10:08:58 51°14.717 2°45.558 15.2 23 12.6 101360 45
2009-11-20 10:09:03 51°14.711 2°45.533 14.6 37 12.6 101360 45
2009-11-20 10:09:08 51°14.706 2°45.509 14.5 26 12.6 101360 46
2009-11-20 10:09:13 51°14.7 2°45.485 16.7 35 12.6 101360 46
2009-11-20 10:09:18 51°14.694 2°45.461 14 23 12.6 101360 44
2009-11-20 10:09:23 51°14.688 2°45.436 16.5 34 12.6 101360 44
2009-11-20 10:09:28 51°14.683 2°45.412 15.3 25 12.6 101360 45
2009-11-20 10:09:33 51°14.676 2°45.388 15.8 32 12.6 101360 45
2009-11-20 10:09:38 51°14.67 2°45.364 14.7 24 12.6 101350 45
2009-11-20 10:09:43 51°14.664 2°45.341 16.5 35 12.6 101350 45
2009-11-20 10:09:48 51°14.657 2°45.317 15.6 25 12.6 101350 44
2009-11-20 10:09:53 51°14.65 2°45.294 16.1 35 12.6 101350 44
2009-11-20 10:09:58 51°14.644 2°45.27 17 24 12.6 101350 45
2009-11-20 10:10:03 51°14.637 2°45.247 16 33 12.6 101350 45
2009-11-20 10:10:08 51°14.629 2°45.223 15.2 21 12.6 101360 45
2009-11-20 10:10:13 51°14.622 2°45.2 16.8 34 12.6 101360 45
2009-11-20 10:10:18 51°14.615 2°45.177 15.9 25 12.6 101360 44
2009-11-20 10:10:23 51°14.608 2°45.153 15.8 32 12.6 101360 44
2009-11-20 10:10:28 51°14.601 2°45.13 18.6 280 12.6 101360 45
2009-11-20 10:10:33 51°14.594 2°45.107 17.2 32 12.6 101360 45
2009-11-20 10:10:38 51°14.586 2°45.083 16.8 24 12.6 101360 45
2009-11-20 10:10:42 51°14.581 2°45.065 15.9 36 12.6 101360 45
2009-11-20 10:10:48 51°14.572 2°45.037 15.2 23 12.6 101360 45
2009-11-20 10:10:53 51°14.565 2°45.013 16.3 34 12.6 101360 45
2009-11-20 10:10:58 51°14.557 2°44.99 17.3 25 12.6 101360 45
2009-11-20 10:11:03 51°14.551 2°44.967 17.2 34 12.6 101360 45
2009-11-20 10:11:08 51°14.543 2°44.943 17.4 25 12.6 101350 45
2009-11-20 10:11:13 51°14.536 2°44.92 15.8 34 12.6 101350 45
2009-11-20 10:11:18 51°14.528 2°44.898 16.2 24 12.6 101360 45
2009-11-20 10:11:23 51°14.52 2°44.876 17.2 37 12.6 101360 45
2009-11-20 10:11:28 51°14.511 2°44.854 16.4 25 12.6 101350 46
2009-11-20 10:11:33 51°14.502 2°44.832 15.6 35 12.6 101350 46
2009-11-20 10:11:38 51°14.493 2°44.811 15.2 22 12.6 101350 45
2009-11-20 10:11:43 51°14.484 2°44.79 15.9 35 12.6 101350 45
2009-11-20 10:11:48 51°14.475 2°44.769 17.5 23 12.6 101360 46
2009-11-20 10:11:53 51°14.465 2°44.748 17.9 38 12.6 101360 46
2009-11-20 10:11:58 51°14.455 2°44.727 15.8 26 12.6 101360 45
2009-11-20 10:12:02 51°14.448 2°44.711 16.1 38 12.6 101360 45
2009-11-20 10:12:08 51°14.436 2°44.685 14.6 25 12.6 101360 46
2009-11-20 10:12:13 51°14.426 2°44.664 16.7 37 12.6 101360 46
2009-11-20 10:12:18 51°14.416 2°44.644 16.6 25 12.6 101350 46
2009-11-20 10:12:23 51°14.406 2°44.623 14.4 35 12.6 101350 46
2009-11-20 10:12:28 51°14.397 2°44.602 14.5 283 12.6 101350 44
2009-11-20 10:12:33 51°14.387 2°44.582 17 316 12.6 101350 44
2009-11-20 10:12:38 51°14.377 2°44.561 16.7 27 12.6 101360 46
2009-11-20 10:12:42 51°14.369 2°44.544 17.2 34 12.6 101360 46
2009-11-20 10:12:48 51°14.357 2°44.52 17.4 21 12.6 101360 44
2009-11-20 10:12:53 51°14.347 2°44.499 16.1 37 12.6 101360 44
2009-11-20 10:12:58 51°14.337 2°44.478 16.6 26 12.6 101360 44
2009-11-20 10:13:02 51°14.329 2°44.461 17.2 315 12.6 101360 44
2009-11-20 10:13:08 51°14.317 2°44.436 15.2 26 12.6 101360 45
2009-11-20 10:13:13 51°14.308 2°44.415 15.1 38 12.6 101360 45
2009-11-20 10:13:18 51°14.298 2°44.394 17.8 283 12.6 101360 45
2009-11-20 10:13:23 51°14.288 2°44.373 18 316 12.6 101360 45
2009-11-20 10:13:28 51°14.279 2°44.352 17.5 315 12.6 101360 46
2009-11-20 10:13:33 51°14.269 2°44.332 17.8 35 12.6 101360 46
2009-11-20 10:13:38 51°14.259 2°44.311 15.7 281 12.6 101360 46
2009-11-20 10:13:43 51°14.25 2°44.29 16 36 12.6 101360 46
2009-11-20 10:13:48 51°14.24 2°44.269 16.4 25 12.6 101360 46
2009-11-20 10:13:53 51°14.23 2°44.248 15.9 32 12.6 101360 46
2009-11-20 10:13:58 51°14.221 2°44.227 16.5 279 12.6 101350 44
2009-11-20 10:14:03 51°14.211 2°44.207 16.3 35 12.6 101350 44
2009-11-20 10:14:08 51°14.201 2°44.185 17.5 281 12.6 101350 46
2009-11-20 10:14:13 51°14.192 2°44.164 17.3 37 12.6 101350 46
2009-11-20 10:14:18 51°14.182 2°44.143 16.6 25 12.6 101350 46
2009-11-20 10:14:23 51°14.172 2°44.123 16.6 315 12.6 101350 46
2009-11-20 10:14:28 51°14.163 2°44.101 15.4 26 12.6 101370 46
2009-11-20 10:14:33 51°14.153 2°44.08 16.4 32 12.6 101370 46
2009-11-20 10:14:38 51°14.143 2°44.06 15.1 24 12.6 101350 46
2009-11-20 10:14:42 51°14.135 2°44.043 16.6 315 12.6 101350 46
2009-11-20 10:14:48 51°14.124 2°44.018 17 315 12.6 101360 44
2009-11-20 10:14:53 51°14.114 2°43.997 17.6 315 12.6 101360 44
2009-11-20 10:14:58 51°14.104 2°43.976 18.1 25 12.6 101360 46
2009-11-20 10:15:03 51°14.095 2°43.955 16.9 317 12.6 101360 46
2009-11-20 10:15:08 51°14.085 2°43.934 16.3 284 12.6 101350 45
2009-11-20 10:15:13 51°14.075 2°43.913 15.7 316 12.6 101350 45
2009-11-20 10:15:18 51°14.065 2°43.892 16 25 12.6 101350 44
2009-11-20 10:15:22 51°14.058 2°43.875 16.1 34 12.6 101350 44
2009-11-20 10:15:28 51°14.046 2°43.849 16.6 21 12.6 101350 45
2009-11-20 10:15:33 51°14.037 2°43.828 16.3 34 12.6 101350 45
2009-11-20 10:15:38 51°14.027 2°43.807 14.9 25 12.6 101360 45
2009-11-20 10:15:43 51°14.017 2°43.786 16.7 37 12.6 101360 45
2009-11-20 10:15:48 51°14.007 2°43.765 18 25 12.6 101360 46
2009-11-20 10:15:53 51°13.998 2°43.744 16.4 38 12.6 101360 46
2009-11-20 10:15:58 51°13.988 2°43.723 16.5 281 12.7 101350 46
2009-11-20 10:16:03 51°13.978 2°43.702 16.8 316 12.7 101350 46
2009-11-20 10:16:08 51°13.968 2°43.681 15.4 317 12.6 101360 46
2009-11-20 10:16:13 51°13.959 2°43.659 17.8 33 12.6 101360 46
2009-11-20 10:16:18 51°13.949 2°43.638 15.8 20 12.7 101360 45
2009-11-20 10:16:23 51°13.94 2°43.617 17.3 315 12.7 101360 45
2009-11-20 10:16:28 51°13.93 2°43.596 16.8 316 12.7 101360 45
2009-11-20 10:16:33 51°13.921 2°43.575 17 37 12.7 101360 45
2009-11-20 10:16:38 51°13.911 2°43.554 15.5 23 12.7 101370 44
2009-11-20 10:16:42 51°13.903 2°43.537 16.8 34 12.7 101370 44
2009-11-20 10:16:48 51°13.892 2°43.512 17.1 315 12.7 101360 44
2009-11-20 10:16:53 51°13.882 2°43.491 17.5 35 12.7 101360 44
2009-11-20 10:16:58 51°13.872 2°43.47 15.6 316 12.7 101370 46
2009-11-20 10:17:03 51°13.863 2°43.449 17.5 317 12.7 101370 46
2009-11-20 10:17:08 51°13.853 2°43.428 16.9 282 12.7 101350 45
2009-11-20 10:17:13 51°13.843 2°43.407 18.8 315 12.7 101350 45
2009-11-20 10:17:18 51°13.834 2°43.386 16.5 281 12.7 101350 44
2009-11-20 10:17:22 51°13.826 2°43.37 16.5 38 12.7 101350 44
2009-11-20 10:17:28 51°13.814 2°43.344 15.3 23 12.7 101360 44
2009-11-20 10:17:33 51°13.805 2°43.323 15.4 31 12.7 101360 44
2009-11-20 10:17:38 51°13.795 2°43.302 15.6 20 12.7 101350 46
2009-11-20 10:17:43 51°13.786 2°43.281 16.5 34 12.7 101350 46
2009-11-20 10:17:48 51°13.776 2°43.26 17.3 22 12.7 101350 45
2009-11-20 10:17:53 51°13.766 2°43.239 14.9 34 12.7 101350 45
2009-11-20 10:17:58 51°13.757 2°43.218 18.1 284 12.7 101360 45
2009-11-20 10:18:03 51°13.747 2°43.197 15.9 316 12.7 101360 45
2009-11-20 10:18:08 51°13.737 2°43.176 16.3 24 12.7 101360 46
2009-11-20 10:18:13 51°13.728 2°43.155 17.3 317 12.7 101360 46
2009-11-20 10:18:18 51°13.718 2°43.134 16.7 286 12.7 101360 44
2009-11-20 10:18:23 51°13.709 2°43.113 17.4 33 12.7 101360 44
2009-11-20 10:18:28 51°13.699 2°43.092 17.4 317 12.7 101360 46
2009-11-20 10:18:33 51°13.689 2°43.071 16.8 33 12.7 101360 46
2009-11-20 10:18:38 51°13.679 2°43.05 16.1 317 12.7 101350 45
2009-11-20 10:18:43 51°13.67 2°43.029 15.6 34 12.7 101350 45
2009-11-20 10:18:48 51°13.66 2°43.008 15 22 12.7 101360 46
2009-11-20 10:18:53 51°13.65 2°42.987 14.7 316 12.7 101360 46
2009-11-20 10:18:58 51°13.64 2°42.966 16.6 316 12.7 101350 44
2009-11-20 10:19:02 51°13.632 2°42.95 15.9 35 12.7 101350 44
2009-11-20 10:19:08 51°13.621 2°42.925 16.7 317 12.7 101360 44
2009-11-20 10:19:13 51°13.611 2°42.904 15.8 315 12.7 101360 44
2009-11-20 10:19:18 51°13.602 2°42.883 14.8 316 12.7 101360 46
2009-11-20 10:19:22 51°13.594 2°42.866 16.6 36 12.7 101360 46
2009-11-20 10:19:28 51°13.582 2°42.841 16.9 23 12.7 101360 46
2009-11-20 10:19:33 51°13.572 2°42.82 17.8 316 12.7 101360 46
2009-11-20 10:19:38 51°13.563 2°42.799 16.9 316 12.7 101350 44
2009-11-20 10:19:43 51°13.553 2°42.778 18.2 316 12.7 101350 44
2009-11-20 10:19:48 51°13.543 2°42.757 15.7 316 12.7 101360 46
2009-11-20 10:19:53 51°13.534 2°42.736 17 35 12.7 101360 46
2009-11-20 10:19:58 51°13.524 2°42.715 14.6 279 12.7 101350 44
2009-11-20 10:20:02 51°13.516 2°42.698 15.2 315 12.7 101350 44
2009-11-20 10:20:08 51°13.504 2°42.673 16.3 315 12.7 101350 44
2009-11-20 10:20:13 51°13.495 2°42.652 15.7 37 12.7 101350 44
2009-11-20 10:20:18 51°13.485 2°42.631 16.8 315 12.7 101360 45
2009-11-20 10:20:23 51°13.475 2°42.61 17.1 315 12.7 101360 45
2009-11-20 10:20:28 51°13.465 2°42.589 17.9 25 12.7 101360 45
2009-11-20 10:20:33 51°13.456 2°42.568 17.1 317 12.7 101360 45
2009-11-20 10:20:38 51°13.446 2°42.547 18.9 281 12.7 101360 46
2009-11-20 10:20:43 51°13.436 2°42.526 17.5 317 12.7 101360 46
2009-11-20 10:20:48 51°13.427 2°42.505 15.2 319 12.7 101360 45
2009-11-20 10:20:53 51°13.417 2°42.485 15.7 316 12.7 101360 45
2009-11-20 10:20:58 51°13.407 2°42.464 16.9 316 12.7 101350 44
2009-11-20 10:21:03 51°13.397 2°42.443 18.4 317 12.7 101350 44
2009-11-20 10:21:08 51°13.388 2°42.422 18 280 12.7 101350 45
2009-11-20 10:21:13 51°13.378 2°42.401 17.8 317 12.7 101350 45
2009-11-20 10:21:18 51°13.368 2°42.38 16.9 316 12.8 101360 44
2009-11-20 10:21:22 51°13.36 2°42.363 16.4 316 12.8 101360 44
2009-11-20 10:21:28 51°13.349 2°42.338 14.4 283 12.7 101350 46
2009-11-20 10:21:33 51°13.339 2°42.317 16.1 316 12.7 101350 46
2009-11-20 10:21:38 51°13.329 2°42.296 17.2 316 12.8 101360 45
2009-11-20 10:21:42 51°13.321 2°42.279 16.5 317 12.8 101360 45
2009-11-20 10:21:48 51°13.31 2°42.254 15.7 316 12.8 101350 46
2009-11-20 10:21:53 51°13.3 2°42.233 16.6 315 12.8 101350 46
2009-11-20 10:21:58 51°13.29 2°42.212 16 315 12.8 101360 45
2009-11-20 10:22:03 51°13.281 2°42.191 16.3 315 12.8 101360 45
2009-11-20 10:22:08 51°13.271 2°42.17 15.1 315 12.8 101360 45
2009-11-20 10:22:13 51°13.261 2°42.149 16.9 317 12.8 101360 45
2009-11-20 10:22:18 51°13.252 2°42.128 18.3 283 12.8 101340 45
2009-11-20 10:22:22 51°13.244 2°42.111 18.1 35 12.8 101340 45
2009-11-20 10:22:28 51°13.232 2°42.086 16.5 317 12.8 101350 45
2009-11-20 10:22:33 51°13.223 2°42.065 16.9 316 12.8 101350 45
2009-11-20 10:22:38 51°13.213 2°42.044 15.2 282 12.8 101360 46
2009-11-20 10:22:43 51°13.203 2°42.023 16.6 317 12.8 101360 46
2009-11-20 10:22:48 51°13.194 2°42.002 15.9 315 12.8 101350 45
2009-11-20 10:22:53 51°13.184 2°41.981 17.6 316 12.8 101350 45
2009-11-20 10:22:58 51°13.174 2°41.961 17.5 316 12.8 101350 44
2009-11-20 10:23:03 51°13.165 2°41.94 15.2 315 12.8 101350 44
2009-11-20 10:23:08 51°13.155 2°41.919 15.2 24 12.8 101350 45
2009-11-20 10:23:13 51°13.146 2°41.898 16.7 317 12.8 101350 45
2009-11-20 10:23:18 51°13.136 2°41.877 18.3 316 12.8 101350 44
2009-11-20 10:23:22 51°13.128 2°41.86 14.6 35 12.8 101350 44
2009-11-20 10:23:28 51°13.116 2°41.835 16.5 316 12.8 101360 45
2009-11-20 10:23:33 51°13.107 2°41.815 17.2 317 12.8 101360 45
2009-11-20 10:23:38 51°13.097 2°41.794 18.5 316 12.8 101360 44
2009-11-20 10:23:43 51°13.087 2°41.773 17.4 37 12.8 101360 44
2009-11-20 10:23:48 51°13.078 2°41.752 18.2 317 12.8 101350 45
2009-11-20 10:23:53 51°13.068 2°41.731 18.5 315 12.8 101350 45
2009-11-20 10:23:58 51°13.058 2°41.71 18.1 315 12.8 101350 45
2009-11-20 10:24:02 51°13.051 2°41.694 17.2 38 12.8 101350 45
2009-11-20 10:24:08 51°13.039 2°41.669 16.4 283 12.8 101350 46
2009-11-20 10:24:13 51°13.029 2°41.648 15.4 316 12.8 101350 46
2009-11-20 10:24:18 51°13.02 2°41.627 14.5 316 12.8 101350 45
2009-11-20 10:24:22 51°13.012 2°41.61 17.9 315 12.8 101350 45
2009-11-20 10:24:28 51°13 2°41.585 16.1 315 12.8 101350 44
2009-11-20 10:24:33 51°12.991 2°41.564 16.3 35 12.8 101350 44
2009-11-20 10:24:38 51°12.981 2°41.543 17.9 282 12.8 101360 47
2009-11-20 10:24:43 51°12.972 2°41.521 16.9 34 12.8 101360 47
2009-11-20 10:24:48 51°12.963 2°41.5 16.3 21 12.8 101370 46
2009-11-20 10:24:53 51°12.954 2°41.478 17.1 34 12.8 101370 46
2009-11-20 10:24:58 51°12.945 2°41.457 16.3 279 12.8 101350 46
2009-11-20 10:25:03 51°12.936 2°41.435 16.6 33 12.8 101350 46
2009-11-20 10:25:08 51°12.927 2°41.413 17.7 23 12.8 101360 46
2009-11-20 10:25:13 51°12.918 2°41.391 16.3 37 12.8 101360 46
2009-11-20 10:25:18 51°12.909 2°41.369 17.4 24 12.9 101350 46
2009-11-20 10:25:23 51°12.901 2°41.348 16.2 35 12.9 101350 46
2009-11-20 10:25:28 51°12.892 2°41.326 15.6 281 12.9 101360 45
2009-11-20 10:25:33 51°12.883 2°41.304 16.6 36 12.9 101360 45
2009-11-20 10:25:38 51°12.875 2°41.282 16.8 26 12.8 101360 46
2009-11-20 10:25:43 51°12.866 2°41.259 15.8 33 12.8 101360 46
2009-11-20 10:25:48 51°12.857 2°41.238 15.4 315 12.9 101350 45
2009-11-20 10:25:53 51°12.849 2°41.216 17.8 35 12.9 101350 45
2009-11-20 10:25:58 51°12.84 2°41.194 15.7 23 12.8 101370 46
2009-11-20 10:26:02 51°12.833 2°41.176 15.9 33 12.8 101370 46
2009-11-20 10:26:08 51°12.822 2°41.15 17 317 12.9 101360 44
2009-11-20 10:26:13 51°12.813 2°41.128 17.4 34 12.9 101360 44
2009-11-20 10:26:18 51°12.804 2°41.106 16.9 24 12.9 101370 44
2009-11-20 10:26:23 51°12.795 2°41.085 15.9 38 12.9 101370 44
2009-11-20 10:26:28 51°12.786 2°41.063 16.5 282 12.9 101370 45
2009-11-20 10:26:33 51°12.777 2°41.041 16.3 34 12.9 101370 45
2009-11-20 10:26:38 51°12.768 2°41.02 16.4 281 12.9 101350 45
2009-11-20 10:26:42 51°12.761 2°41.003 14.4 317 12.9 101350 45
2009-11-20 10:26:48 51°12.75 2°40.977 15.2 22 12.8 101360 44
2009-11-20 10:26:53 51°12.74 2°40.956 15.4 316 12.8 101360 44
2009-11-20 10:26:58 51°12.73 2°40.935 16.7 282 12.9 101360 46
2009-11-20 10:27:03 51°12.721 2°40.914 14.7 316 12.9 101360 46
2009-11-20 10:27:08 51°12.712 2°40.893 15.9 315 12.9 101360 46
2009-11-20 10:27:13 51°12.702 2°40.871 15.7 36 12.9 101360 46
2009-11-20 10:27:18 51°12.693 2°40.85 15.9 281 12.9 101370 46
2009-11-20 10:27:23 51°12.683 2°40.829 15 318 12.9 101370 46
2009-11-20 10:27:28 51°12.673 2°40.808 15.5 315 12.9 101360 46
2009-11-20 10:27:33 51°12.664 2°40.787 15.3 315 12.9 101360 46
2009-11-20 10:27:38 51°12.654 2°40.766 16.4 315 12.9 101370 46
2009-11-20 10:27:43 51°12.645 2°40.745 16 315 12.9 101370 46
2009-11-20 10:27:48 51°12.635 2°40.724 16.8 25 12.9 101360 46
2009-11-20 10:27:53 51°12.626 2°40.703 16.3 37 12.9 101360 46
2009-11-20 10:27:58 51°12.616 2°40.681 16 317 12.9 101360 46
2009-11-20 10:28:02 51°12.608 2°40.665 16.2 316 12.9 101360 46
2009-11-20 10:28:08 51°12.597 2°40.64 16.3 281 12.9 101370 46
2009-11-20 10:28:13 51°12.587 2°40.619 14.8 316 12.9 101370 46
2009-11-20 10:28:18 51°12.577 2°40.598 15.9 317 12.9 101360 47
2009-11-20 10:28:22 51°12.57 2°40.581 14.7 317 12.9 101360 47
2009-11-20 10:28:28 51°12.558 2°40.555 17.7 280 12.9 101360 44
2009-11-20 10:28:33 51°12.549 2°40.533 17 316 12.9 101360 44
2009-11-20 10:28:38 51°12.54 2°40.512 15.6 316 12.9 101360 45
2009-11-20 10:28:43 51°12.531 2°40.491 16.3 33 12.9 101360 45
2009-11-20 10:28:48 51°12.521 2°40.47 16.3 25 12.9 101370 46
2009-11-20 10:28:53 51°12.511 2°40.449 15.2 315 12.9 101370 46
2009-11-20 10:28:58 51°12.502 2°40.428 15.4 281 12.9 101370 44
2009-11-20 10:29:02 51°12.494 2°40.411 13.7 316 12.9 101370 44
2009-11-20 10:29:08 51°12.483 2°40.385 14.4 317 12.9 101370 47
2009-11-20 10:29:13 51°12.473 2°40.364 14.6 316 12.9 101370 47
2009-11-20 10:29:18 51°12.463 2°40.343 15.8 285 12.9 101370 47
2009-11-20 10:29:23 51°12.454 2°40.322 14.7 316 12.9 101370 47
2009-11-20 10:29:28 51°12.444 2°40.301 16.4 25 12.9 101370 45
2009-11-20 10:29:33 51°12.435 2°40.28 15.9 317 12.9 101370 45
2009-11-20 10:29:38 51°12.425 2°40.259 14.8 285 12.9 101370 44
2009-11-20 10:29:43 51°12.415 2°40.238 14.2 34 12.9 101370 44
2009-11-20 10:29:48 51°12.406 2°40.217 14.6 317 12.9 101370 44
2009-11-20 10:29:53 51°12.396 2°40.196 15.8 316 12.9 101370 44
2009-11-20 10:29:58 51°12.387 2°40.174 14.8 317 12.9 101370 44
2009-11-20 10:30:02 51°12.379 2°40.158 16.4 320 12.9 101370 44
2009-11-20 10:30:08 51°12.367 2°40.132 15.6 22 12.9 101370 47
2009-11-20 10:30:13 51°12.358 2°40.111 14.1 317 12.9 101370 47
2009-11-20 10:30:18 51°12.348 2°40.09 14.5 25 12.9 101370 46
2009-11-20 10:30:23 51°12.339 2°40.069 15.9 37 12.9 101370 46
2009-11-20 10:30:28 51°12.329 2°40.048 15.8 285 12.9 101370 46
2009-11-20 10:30:33 51°12.319 2°40.028 17 316 12.9 101370 46
2009-11-20 10:30:38 51°12.31 2°40.007 16.5 21 12.9 101380 47
2009-11-20 10:30:42 51°12.302 2°39.99 15.1 316 12.9 101380 47
2009-11-20 10:30:48 51°12.291 2°39.965 15 315 12.9 101380 44
2009-11-20 10:30:53 51°12.281 2°39.945 13.9 316 12.9 101380 44
2009-11-20 10:30:58 51°12.272 2°39.923 15.1 315 12.9 101380 44
2009-11-20 10:31:03 51°12.262 2°39.902 14.9 33 12.9 101380 44
2009-11-20 10:31:08 51°12.253 2°39.881 14.8 25 12.9 101380 44
2009-11-20 10:31:13 51°12.243 2°39.86 17.1 316 12.9 101380 44
2009-11-20 10:31:18 51°12.234 2°39.839 15.5 279 12.9 101380 44
2009-11-20 10:31:23 51°12.224 2°39.818 15.6 317 12.9 101380 44
2009-11-20 10:31:28 51°12.215 2°39.797 15.5 26 12.9 101370 46
2009-11-20 10:31:33 51°12.205 2°39.776 16.4 318 12.9 101370 46
2009-11-20 10:31:38 51°12.196 2°39.755 14.6 286 12.9 101380 45
2009-11-20 10:31:43 51°12.186 2°39.734 15.9 316 12.9 101380 45
2009-11-20 10:31:48 51°12.177 2°39.713 15.9 21 12.9 101380 46
2009-11-20 10:31:53 51°12.167 2°39.692 14.2 317 12.9 101380 46
2009-11-20 10:31:58 51°12.157 2°39.671 14.3 24 12.9 101380 44
2009-11-20 10:32:03 51°12.148 2°39.65 17 317 12.9 101380 44
2009-11-20 10:32:08 51°12.139 2°39.629 16.1 284 12.9 101380 44
2009-11-20 10:32:13 51°12.129 2°39.608 15.5 35 12.9 101380 44
2009-11-20 10:32:18 51°12.12 2°39.586 14.3 24 12.9 101380 44
2009-11-20 10:32:23 51°12.11 2°39.565 15 316 12.9 101380 44
2009-11-20 10:32:28 51°12.101 2°39.544 15.8 317 12.9 101380 46
2009-11-20 10:32:33 51°12.091 2°39.523 14.7 316 12.9 101380 46
2009-11-20 10:32:38 51°12.082 2°39.502 13.4 22 12.9 101380 46
2009-11-20 10:32:42 51°12.074 2°39.485 13.1 39 12.9 101380 46
2009-11-20 10:32:48 51°12.063 2°39.46 13.9 317 12.9 101390 46
2009-11-20 10:32:53 51°12.053 2°39.439 15.1 34 12.9 101390 46
2009-11-20 10:32:58 51°12.044 2°39.417 14.4 316 12.9 101380 46
2009-11-20 10:33:03 51°12.034 2°39.397 15.5 316 12.9 101380 46
2009-11-20 10:33:08 51°12.025 2°39.376 15.8 280 12.9 101380 45
2009-11-20 10:33:13 51°12.016 2°39.355 14.3 316 12.9 101380 45
2009-11-20 10:33:18 51°12.006 2°39.333 16.2 282 12.9 101390 44
2009-11-20 10:33:22 51°11.999 2°39.317 13.7 32 12.9 101390 44
2009-11-20 10:33:28 51°11.988 2°39.291 16.1 21 12.9 101390 46
2009-11-20 10:33:33 51°11.978 2°39.27 15.2 34 12.9 101390 46
2009-11-20 10:33:38 51°11.968 2°39.249 15 286 12.9 101370 47
2009-11-20 10:33:43 51°11.959 2°39.228 15 35 12.9 101370 47
2009-11-20 10:33:48 51°11.949 2°39.207 14.1 315 12.9 101380 44
2009-11-20 10:33:53 51°11.94 2°39.186 15.8 319 12.9 101380 44
2009-11-20 10:33:58 51°11.931 2°39.165 16.5 282 12.9 101380 44
2009-11-20 10:34:02 51°11.924 2°39.148 15.4 317 12.9 101380 44
2009-11-20 10:34:08 51°11.912 2°39.123 15.9 316 12.9 101390 45
2009-11-20 10:34:13 51°11.903 2°39.102 15.3 33 12.9 101390 45
2009-11-20 10:34:18 51°11.894 2°39.081 15.8 315 12.9 101390 46
2009-11-20 10:34:23 51°11.884 2°39.06 15.9 38 12.9 101390 46
2009-11-20 10:34:28 51°11.874 2°39.04 16.5 280 12.9 101390 46
2009-11-20 10:34:33 51°11.865 2°39.019 16.1 315 12.9 101390 46
2009-11-20 10:34:38 51°11.855 2°38.998 14.5 320 12.9 101370 46
2009-11-20 10:34:42 51°11.847 2°38.982 15.9 315 12.9 101370 46
2009-11-20 10:34:48 51°11.836 2°38.957 14.8 316 12.9 101380 46
2009-11-20 10:34:53 51°11.826 2°38.936 14.3 316 12.9 101380 46
2009-11-20 10:34:58 51°11.817 2°38.916 15.6 317 12.9 101390 46
2009-11-20 10:35:02 51°11.809 2°38.899 16.2 36 12.9 101390 46
2009-11-20 10:35:08 51°11.797 2°38.874 13.9 284 12.9 101380 44
2009-11-20 10:35:13 51°11.788 2°38.853 15.1 316 12.9 101380 44
2009-11-20 10:35:18 51°11.779 2°38.832 16.1 25 12.9 101380 46
2009-11-20 10:35:23 51°11.769 2°38.811 14.5 315 12.9 101380 46
2009-11-20 10:35:28 51°11.76 2°38.79 15.1 315 13 101380 45
2009-11-20 10:35:33 51°11.751 2°38.769 16.2 33 13 101380 45
2009-11-20 10:35:38 51°11.741 2°38.748 17.4 24 12.9 101380 45
2009-11-20 10:35:42 51°11.734 2°38.731 14.7 315 12.9 101380 45
2009-11-20 10:35:48 51°11.722 2°38.706 16.1 22 13 101380 47
2009-11-20 10:35:53 51°11.713 2°38.685 14.6 315 13 101380 47
2009-11-20 10:35:58 51°11.704 2°38.664 14.3 317 13 101390 44
2009-11-20 10:36:03 51°11.694 2°38.644 16 315 13 101390 44
2009-11-20 10:36:08 51°11.685 2°38.622 16.4 316 12.9 101370 45
2009-11-20 10:36:13 51°11.675 2°38.602 15.1 32 12.9 101370 45
2009-11-20 10:36:18 51°11.666 2°38.581 14.1 282 13 101380 46
2009-11-20 10:36:23 51°11.657 2°38.56 15 316 13 101380 46
2009-11-20 10:36:28 51°11.647 2°38.539 14 282 12.9 101390 45
2009-11-20 10:36:33 51°11.638 2°38.518 15.9 36 12.9 101390 45
2009-11-20 10:36:38 51°11.628 2°38.497 14.6 315 13 101380 45
2009-11-20 10:36:43 51°11.619 2°38.476 15.5 317 13 101380 45
2009-11-20 10:36:48 51°11.609 2°38.456 15.6 25 13 101390 44
2009-11-20 10:36:53 51°11.6 2°38.434 14.5 32 13 101390 44
2009-11-20 10:36:58 51°11.59 2°38.414 15.3 316 13 101380 44
2009-11-20 10:37:02 51°11.583 2°38.397 13.6 317 13 101380 44
2009-11-20 10:37:08 51°11.571 2°38.372 16 318 13 101390 45
2009-11-20 10:37:13 51°11.562 2°38.351 15.3 316 13 101390 45
2009-11-20 10:37:18 51°11.553 2°38.33 16.2 25 13 101380 46
2009-11-20 10:37:23 51°11.544 2°38.309 14 315 13 101380 46
2009-11-20 10:37:28 51°11.534 2°38.288 15.8 282 13 101380 45
2009-11-20 10:37:33 51°11.525 2°38.267 14.1 315 13 101380 45
2009-11-20 10:37:38 51°11.515 2°38.246 13.7 284 13 101380 45
2009-11-20 10:37:42 51°11.508 2°38.23 13.2 317 13 101380 45
2009-11-20 10:37:48 51°11.496 2°38.205 16.5 22 13 101370 45
2009-11-20 10:37:53 51°11.487 2°38.184 14.8 316 13 101370 45
2009-11-20 10:37:58 51°11.477 2°38.163 14.6 317 13 101390 45
2009-11-20 10:38:03 51°11.468 2°38.142 13.6 317 13 101390 45
2009-11-20 10:38:08 51°11.458 2°38.121 14.9 316 13 101390 46
2009-11-20 10:38:13 51°11.449 2°38.1 14.4 317 13 101390 46
2009-11-20 10:38:18 51°11.439 2°38.079 13.5 281 13 101380 44
2009-11-20 10:38:22 51°11.432 2°38.063 14.3 35 13 101380 44
2009-11-20 10:38:28 51°11.421 2°38.037 13.8 315 13 101380 45
2009-11-20 10:38:33 51°11.411 2°38.016 15.2 317 13 101380 45
2009-11-20 10:38:38 51°11.402 2°37.995 14.4 315 13 101380 44
2009-11-20 10:38:43 51°11.392 2°37.974 16.5 315 13 101380 44
2009-11-20 10:38:48 51°11.383 2°37.953 17.6 315 13 101380 46
2009-11-20 10:38:53 51°11.374 2°37.932 16.9 34 13 101380 46
2009-11-20 10:38:58 51°11.364 2°37.911 16 317 13.1 101390 47
2009-11-20 10:39:03 51°11.355 2°37.89 14.8 316 13.1 101390 47
2009-11-20 10:39:08 51°11.346 2°37.869 14 282 13 101370 45
2009-11-20 10:39:13 51°11.336 2°37.848 14.6 316 13 101370 45
2009-11-20 10:39:18 51°11.327 2°37.827 16.7 317 13.1 101370 46
2009-11-20 10:39:22 51°11.319 2°37.81 15.2 316 13.1 101370 46
2009-11-20 10:39:28 51°11.308 2°37.785 15.2 316 13 101380 46
2009-11-20 10:39:33 51°11.299 2°37.764 14.3 317 13 101380 46
2009-11-20 10:39:38 51°11.289 2°37.743 15 316 13 101390 45
2009-11-20 10:39:43 51°11.28 2°37.722 14.6 317 13 101390 45
2009-11-20 10:39:48 51°11.271 2°37.701 15.1 316 13.1 101380 45
2009-11-20 10:39:53 51°11.261 2°37.68 14.5 317 13.1 101380 45
2009-11-20 10:39:58 51°11.252 2°37.659 14.2 317 13 101390 44
2009-11-20 10:40:02 51°11.244 2°37.642 15.2 316 13 101390 44
2009-11-20 10:40:08 51°11.233 2°37.617 17.2 317 13.1 101380 46
2009-11-20 10:40:13 51°11.224 2°37.596 15.5 31 13.1 101380 46
2009-11-20 10:40:18 51°11.214 2°37.576 14.9 280 13.1 101380 44
2009-11-20 10:40:23 51°11.205 2°37.555 14.3 318 13.1 101380 44
2009-11-20 10:40:28 51°11.195 2°37.534 15.2 316 13.1 101380 46
2009-11-20 10:40:33 51°11.186 2°37.513 15.2 317 13.1 101380 46
2009-11-20 10:40:38 51°11.176 2°37.492 14.2 279 13.1 101380 47
2009-11-20 10:40:43 51°11.167 2°37.471 15.5 316 13.1 101380 47
2009-11-20 10:40:48 51°11.157 2°37.45 14.5 22 13.1 101390 47
2009-11-20 10:40:53 51°11.148 2°37.429 16.9 316 13.1 101390 47
2009-11-20 10:40:58 51°11.139 2°37.409 16.1 279 13.1 101380 46
2009-11-20 10:41:03 51°11.129 2°37.388 15 36 13.1 101380 46
2009-11-20 10:41:08 51°11.12 2°37.367 15.5 317 13.1 101370 46
2009-11-20 10:41:13 51°11.11 2°37.346 13.4 315 13.1 101370 46
2009-11-20 10:41:18 51°11.101 2°37.325 15.1 316 13.1 101380 47
2009-11-20 10:41:23 51°11.092 2°37.304 17 32 13.1 101380 47
2009-11-20 10:41:28 51°11.082 2°37.283 15.1 282 13.1 101380 44
2009-11-20 10:41:33 51°11.073 2°37.263 13.8 317 13.1 101380 44
2009-11-20 10:41:38 51°11.063 2°37.242 16.6 315 13.1 101370 46
2009-11-20 10:41:42 51°11.056 2°37.225 15.2 316 13.1 101370 46
2009-11-20 10:41:48 51°11.045 2°37.2 16.1 24 13.1 101380 44
2009-11-20 10:41:53 51°11.035 2°37.179 15.7 318 13.1 101380 44
2009-11-20 10:41:58 51°11.026 2°37.159 15.2 317 13.1 101380 45
2009-11-20 10:42:02 51°11.018 2°37.142 14.6 316 13.1 101380 45
2009-11-20 10:42:08 51°11.007 2°37.117 15.3 317 13.1 101360 45
2009-11-20 10:42:13 51°10.997 2°37.096 16.7 316 13.1 101360 45
2009-11-20 10:42:18 51°10.988 2°37.075 15.2 316 13.1 101370 44
2009-11-20 10:42:23 51°10.978 2°37.055 16.3 315 13.1 101370 44
2009-11-20 10:42:28 51°10.969 2°37.034 15.5 317 13.1 101380 44
2009-11-20 10:42:33 51°10.959 2°37.013 15.7 318 13.1 101380 44
2009-11-20 10:42:38 51°10.95 2°36.992 15.3 278 13.1 101370 45
2009-11-20 10:42:42 51°10.942 2°36.976 17.2 316 13.1 101370 45
2009-11-20 10:42:48 51°10.93 2°36.951 13.9 316 13.2 101370 46
2009-11-20 10:42:53 51°10.921 2°36.93 14.3 317 13.2 101370 46
2009-11-20 10:42:58 51°10.911 2°36.909 14.3 278 13.2 101380 45
2009-11-20 10:43:03 51°10.902 2°36.888 15.7 37 13.2 101380 45
2009-11-20 10:43:07 51°10.895 2°36.872 13.6 317 13.2 101380 44
2009-11-20 10:43:13 51°10.883 2°36.847 14.4 318 13.2 101380 44
2009-11-20 10:43:18 51°10.873 2°36.826 14.9 318 13.2 101380 44
2009-11-20 10:43:23 51°10.864 2°36.806 16.1 34 13.2 101380 44
2009-11-20 10:43:28 51°10.855 2°36.785 14.1 283 13.2 101380 45
2009-11-20 10:43:33 51°10.845 2°36.764 15 318 13.2 101380 45
2009-11-20 10:43:38 51°10.836 2°36.743 16 25 13.2 101390 45
2009-11-20 10:43:43 51°10.827 2°36.722 16.6 37 13.2 101390 45
2009-11-20 10:43:48 51°10.817 2°36.701 14 316 13.2 101390 46
2009-11-20 10:43:53 51°10.807 2°36.681 14 317 13.2 101390 46
2009-11-20 10:43:58 51°10.797 2°36.661 14 318 13.2 101380 45
2009-11-20 10:44:02 51°10.789 2°36.645 13.9 319 13.2 101380 45
2009-11-20 10:44:08 51°10.777 2°36.622 12.6 316 13.2 101380 47
2009-11-20 10:44:13 51°10.767 2°36.602 14.3 319 13.2 101380 47
2009-11-20 10:44:18 51°10.755 2°36.584 13.8 320 13.2 101380 47
2009-11-20 10:44:23 51°10.744 2°36.565 14.7 319 13.2 101380 47
2009-11-20 10:44:28 51°10.734 2°36.546 14.5 318 13.2 101390 47
2009-11-20 10:44:33 51°10.722 2°36.528 15.2 317 13.2 101390 47
2009-11-20 10:44:38 51°10.711 2°36.51 15 282 13.2 101380 45
2009-11-20 10:44:42 51°10.702 2°36.496 15.5 318 13.2 101380 45
2009-11-20 10:44:48 51°10.688 2°36.474 15.5 320 13.2 101390 46
2009-11-20 10:44:53 51°10.677 2°36.457 15.5 318 13.2 101390 46
2009-11-20 10:44:58 51°10.665 2°36.438 15.7 319 13.2 101380 46
2009-11-20 10:45:03 51°10.654 2°36.42 14.2 320 13.2 101380 46
2009-11-20 10:45:08 51°10.642 2°36.403 15.4 317 13.2 101380 46
2009-11-20 10:45:13 51°10.63 2°36.386 16.5 318 13.2 101380 46
2009-11-20 10:45:18 51°10.619 2°36.368 15.9 278 13.2 101380 46
2009-11-20 10:45:22 51°10.61 2°36.354 14.9 320 13.2 101380 46
2009-11-20 10:45:28 51°10.595 2°36.334 14.9 322 13.2 101380 47
2009-11-20 10:45:33 51°10.583 2°36.317 15.1 322 13.2 101380 47
2009-11-20 10:45:38 51°10.571 2°36.3 15.4 320 13.2 101380 46
2009-11-20 10:45:43 51°10.559 2°36.284 15.4 322 13.2 101380 46
2009-11-20 10:45:48 51°10.546 2°36.268 15.5 322 13.2 101380 45
2009-11-20 10:45:53 51°10.534 2°36.252 16.4 322 13.2 101380 45
2009-11-20 10:45:58 51°10.522 2°36.236 15.1 322 13.2 101380 45
2009-11-20 10:46:02 51°10.511 2°36.225 13.8 324 13.2 101380 45
2009-11-20 10:46:08 51°10.496 2°36.206 15.7 283 13.2 101380 47
2009-11-20 10:46:13 51°10.482 2°36.192 13.7 323 13.2 101380 47
2009-11-20 10:46:18 51°10.469 2°36.177 14.2 324 13.2 101380 45
2009-11-20 10:46:22 51°10.459 2°36.166 14.9 323 13.2 101380 45
2009-11-20 10:46:28 51°10.443 2°36.148 16.5 322 13.2 101380 45
2009-11-20 10:46:33 51°10.43 2°36.135 15.6 323 13.2 101380 45
2009-11-20 10:46:38 51°10.416 2°36.121 16.4 325 13.2 101390 46
2009-11-20 10:46:43 51°10.403 2°36.108 14.2 324 13.2 101390 46
2009-11-20 10:46:48 51°10.389 2°36.095 14.9 326 13.2 101390 45
2009-11-20 10:46:53 51°10.375 2°36.082 14.6 324 13.2 101390 45
2009-11-20 10:46:58 51°10.361 2°36.07 15.1 284 13.2 101390 45
2009-11-20 10:47:02 51°10.35 2°36.06 15.6 327 13.2 101390 45
2009-11-20 10:47:08 51°10.333 2°36.045 14.3 328 13.2 101390 47
2009-11-20 10:47:13 51°10.32 2°36.033 15.7 327 13.2 101390 47
2009-11-20 10:47:18 51°10.306 2°36.021 16.4 326 13.2 101390 45
2009-11-20 10:47:23 51°10.291 2°36.009 16.8 324 13.2 101390 45
2009-11-20 10:47:28 51°10.277 2°35.998 16.4 325 13.2 101390 45
2009-11-20 10:47:33 51°10.263 2°35.986 15.4 328 13.2 101390 45
2009-11-20 10:47:38 51°10.249 2°35.976 16.5 283 13.3 101400 45
2009-11-20 10:47:43 51°10.234 2°35.965 16.1 328 13.3 101400 45
2009-11-20 10:47:48 51°10.22 2°35.956 16.3 329 13.2 101390 45
2009-11-20 10:47:53 51°10.205 2°35.947 14.8 330 13.2 101390 45
2009-11-20 10:47:58 51°10.19 2°35.937 14.7 329 13.3 101390 45
2009-11-20 10:48:03 51°10.175 2°35.929 15.6 330 13.3 101390 45
2009-11-20 10:48:08 51°10.161 2°35.92 16.1 329 13.3 101400 46
2009-11-20 10:48:13 51°10.146 2°35.911 14.1 330 13.3 101400 46
2009-11-20 10:48:18 51°10.13 2°35.904 13.9 329 13.3 101400 46
2009-11-20 10:48:22 51°10.118 2°35.897 15.3 332 13.3 101400 46
2009-11-20 10:48:28 51°10.1 2°35.891 15 332 13.3 101410 45
2009-11-20 10:48:33 51°10.084 2°35.886 14.3 333 13.3 101410 45
2009-11-20 10:48:38 51°10.069 2°35.884 13.9 332 13.3 101400 45
2009-11-20 10:48:43 51°10.053 2°35.881 13.1 335 13.3 101400 45
2009-11-20 10:48:48 51°10.038 2°35.882 15.3 337 13.3 101410 46
2009-11-20 10:48:53 51°10.022 2°35.883 15.7 339 13.3 101410 46
2009-11-20 10:48:58 51°10.007 2°35.884 15.1 282 13.3 101400 46
2009-11-20 10:49:02 51°9.995 2°35.887 16.2 340 13.3 101400 46
2009-11-20 10:49:08 51°9.976 2°35.891 15.6 340 13.3 101410 45
2009-11-20 10:49:13 51°9.961 2°35.895 16.4 339 13.3 101410 45
2009-11-20 10:49:18 51°9.946 2°35.899 15.6 283 13.3 101400 44
2009-11-20 10:49:23 51°9.931 2°35.905 14.5 343 13.3 101400 44
2009-11-20 10:49:27 51°9.918 2°35.909 15 338 13.3 101400 46
2009-11-20 10:49:33 51°9.9 2°35.916 16.4 341 13.3 101400 46